sensor_id;sensor_type;location;lat;lon;timestamp;P1;durP1;ratioP1;P2;durP2;ratioP2
70102;SDS011;57470;50.034;15.256;2022-10-16T00:01:39;8.33;;;2.40;;
70102;SDS011;57470;50.034;15.256;2022-10-16T00:04:04;7.85;;;3.00;;
70102;SDS011;57470;50.034;15.256;2022-10-16T00:06:30;9.13;;;2.47;;
70102;SDS011;57470;50.034;15.256;2022-10-16T00:08:56;9.77;;;3.38;;
70102;SDS011;57470;50.034;15.256;2022-10-16T00:11:32;8.53;;;2.60;;
70102;SDS011;57470;50.034;15.256;2022-10-16T00:14:02;11.07;;;3.38;;
70102;SDS011;57470;50.034;15.256;2022-10-16T00:16:29;7.80;;;3.42;;
70102;SDS011;57470;50.034;15.256;2022-10-16T00:18:55;6.77;;;2.63;;
70102;SDS011;57470;50.034;15.256;2022-10-16T00:21:22;7.63;;;2.70;;
70102;SDS011;57470;50.034;15.256;2022-10-16T00:23:50;8.50;;;2.83;;
70102;SDS011;57470;50.034;15.256;2022-10-16T00:26:18;6.50;;;2.42;;
70102;SDS011;57470;50.034;15.256;2022-10-16T00:28:47;9.82;;;3.75;;
70102;SDS011;57470;50.034;15.256;2022-10-16T00:31:15;9.10;;;3.35;;
70102;SDS011;57470;50.034;15.256;2022-10-16T00:33:41;13.57;;;3.70;;
70102;SDS011;57470;50.034;15.256;2022-10-16T00:36:08;8.38;;;3.15;;
70102;SDS011;57470;50.034;15.256;2022-10-16T00:38:36;5.75;;;1.95;;
70102;SDS011;57470;50.034;15.256;2022-10-16T00:41:03;8.93;;;2.67;;
70102;SDS011;57470;50.034;15.256;2022-10-16T00:43:36;7.75;;;2.95;;
70102;SDS011;57470;50.034;15.256;2022-10-16T00:46:03;8.90;;;2.63;;
70102;SDS011;57470;50.034;15.256;2022-10-16T00:48:35;5.60;;;1.92;;
70102;SDS011;57470;50.034;15.256;2022-10-16T00:51:01;6.27;;;2.37;;
70102;SDS011;57470;50.034;15.256;2022-10-16T00:53:27;8.35;;;3.35;;
70102;SDS011;57470;50.034;15.256;2022-10-16T00:55:52;8.27;;;3.07;;
70102;SDS011;57470;50.034;15.256;2022-10-16T00:58:18;7.28;;;2.38;;
70102;SDS011;57470;50.034;15.256;2022-10-16T01:00:44;6.50;;;2.27;;
70102;SDS011;57470;50.034;15.256;2022-10-16T01:03:30;14.57;;;2.28;;
70102;SDS011;57470;50.034;15.256;2022-10-16T01:11:50;5.03;;;1.48;;
70102;SDS011;57470;50.034;15.256;2022-10-16T01:14:53;8.05;;;2.08;;
70102;SDS011;57470;50.034;15.256;2022-10-16T01:17:24;8.02;;;3.03;;
70102;SDS011;57470;50.034;15.256;2022-10-16T01:20:44;8.37;;;2.40;;
70102;SDS011;57470;50.034;15.256;2022-10-16T01:23:10;10.85;;;2.47;;
70102;SDS011;57470;50.034;15.256;2022-10-16T01:26:03;8.20;;;2.58;;
70102;SDS011;57470;50.034;15.256;2022-10-16T01:31:18;7.65;;;2.90;;
70102;SDS011;57470;50.034;15.256;2022-10-16T01:33:48;7.13;;;2.30;;
70102;SDS011;57470;50.034;15.256;2022-10-16T01:36:30;10.23;;;2.78;;
70102;SDS011;57470;50.034;15.256;2022-10-16T01:39:03;6.88;;;1.83;;
70102;SDS011;57470;50.034;15.256;2022-10-16T01:41:33;7.57;;;2.08;;
70102;SDS011;57470;50.034;15.256;2022-10-16T01:44:14;8.05;;;3.10;;
70102;SDS011;57470;50.034;15.256;2022-10-16T01:46:46;6.20;;;2.00;;
70102;SDS011;57470;50.034;15.256;2022-10-16T01:49:15;7.78;;;2.70;;
70102;SDS011;57470;50.034;15.256;2022-10-16T01:51:43;7.18;;;2.38;;
70102;SDS011;57470;50.034;15.256;2022-10-16T01:54:13;8.25;;;2.80;;
70102;SDS011;57470;50.034;15.256;2022-10-16T01:56:44;9.82;;;3.03;;
70102;SDS011;57470;50.034;15.256;2022-10-16T01:59:15;9.00;;;2.50;;
70102;SDS011;57470;50.034;15.256;2022-10-16T02:01:47;9.15;;;3.13;;
70102;SDS011;57470;50.034;15.256;2022-10-16T02:04:34;6.53;;;2.67;;
70102;SDS011;57470;50.034;15.256;2022-10-16T02:07:03;8.07;;;2.88;;
70102;SDS011;57470;50.034;15.256;2022-10-16T02:09:29;11.68;;;2.28;;
70102;SDS011;57470;50.034;15.256;2022-10-16T02:11:57;5.57;;;1.77;;
70102;SDS011;57470;50.034;15.256;2022-10-16T02:14:27;6.20;;;2.42;;
70102;SDS011;57470;50.034;15.256;2022-10-16T02:16:53;6.55;;;1.92;;
70102;SDS011;57470;50.034;15.256;2022-10-16T02:19:19;7.67;;;2.40;;
70102;SDS011;57470;50.034;15.256;2022-10-16T02:21:48;7.82;;;2.38;;
70102;SDS011;57470;50.034;15.256;2022-10-16T02:26:57;13.07;;;3.08;;
70102;SDS011;57470;50.034;15.256;2022-10-16T02:29:30;6.63;;;2.53;;
70102;SDS011;57470;50.034;15.256;2022-10-16T02:32:01;8.57;;;2.85;;
70102;SDS011;57470;50.034;15.256;2022-10-16T02:34:29;7.78;;;2.78;;
70102;SDS011;57470;50.034;15.256;2022-10-16T02:36:58;8.82;;;2.60;;
70102;SDS011;57470;50.034;15.256;2022-10-16T02:39:24;8.13;;;2.38;;
70102;SDS011;57470;50.034;15.256;2022-10-16T02:41:52;7.83;;;2.57;;
70102;SDS011;57470;50.034;15.256;2022-10-16T02:44:17;10.80;;;2.50;;
70102;SDS011;57470;50.034;15.256;2022-10-16T02:46:42;7.17;;;3.13;;
70102;SDS011;57470;50.034;15.256;2022-10-16T02:49:08;7.80;;;2.50;;
70102;SDS011;57470;50.034;15.256;2022-10-16T02:51:33;8.97;;;2.60;;
70102;SDS011;57470;50.034;15.256;2022-10-16T02:53:59;6.68;;;2.28;;
70102;SDS011;57470;50.034;15.256;2022-10-16T02:56:25;9.67;;;2.80;;
70102;SDS011;57470;50.034;15.256;2022-10-16T02:58:50;9.37;;;2.53;;
70102;SDS011;57470;50.034;15.256;2022-10-16T03:01:15;5.60;;;1.33;;
70102;SDS011;57470;50.034;15.256;2022-10-16T03:03:41;5.93;;;1.65;;
70102;SDS011;57470;50.034;15.256;2022-10-16T03:06:07;7.20;;;2.17;;
70102;SDS011;57470;50.034;15.256;2022-10-16T03:08:33;6.03;;;2.60;;
70102;SDS011;57470;50.034;15.256;2022-10-16T03:10:58;4.90;;;1.13;;
70102;SDS011;57470;50.034;15.256;2022-10-16T03:13:24;5.80;;;2.63;;
70102;SDS011;57470;50.034;15.256;2022-10-16T03:15:49;8.27;;;1.90;;
70102;SDS011;57470;50.034;15.256;2022-10-16T03:18:15;3.53;;;1.13;;
70102;SDS011;57470;50.034;15.256;2022-10-16T03:20:40;7.80;;;2.10;;
70102;SDS011;57470;50.034;15.256;2022-10-16T03:23:07;3.97;;;1.03;;
70102;SDS011;57470;50.034;15.256;2022-10-16T03:25:33;5.57;;;1.75;;
70102;SDS011;57470;50.034;15.256;2022-10-16T03:27:58;5.37;;;2.03;;
70102;SDS011;57470;50.034;15.256;2022-10-16T03:30:24;6.73;;;2.43;;
70102;SDS011;57470;50.034;15.256;2022-10-16T03:32:49;5.83;;;2.17;;
70102;SDS011;57470;50.034;15.256;2022-10-16T03:35:18;4.90;;;1.60;;
70102;SDS011;57470;50.034;15.256;2022-10-16T03:37:47;4.53;;;1.30;;
70102;SDS011;57470;50.034;15.256;2022-10-16T03:40:13;6.77;;;1.80;;
70102;SDS011;57470;50.034;15.256;2022-10-16T03:42:39;6.43;;;1.97;;
70102;SDS011;57470;50.034;15.256;2022-10-16T03:45:04;4.57;;;1.38;;
70102;SDS011;57470;50.034;15.256;2022-10-16T03:47:30;5.23;;;1.93;;
70102;SDS011;57470;50.034;15.256;2022-10-16T03:49:58;4.65;;;1.70;;
70102;SDS011;57470;50.034;15.256;2022-10-16T03:52:23;4.47;;;1.55;;
70102;SDS011;57470;50.034;15.256;2022-10-16T03:54:49;13.13;;;2.33;;
70102;SDS011;57470;50.034;15.256;2022-10-16T03:57:14;4.90;;;2.00;;
70102;SDS011;57470;50.034;15.256;2022-10-16T03:59:40;5.70;;;1.87;;
70102;SDS011;57470;50.034;15.256;2022-10-16T04:02:05;7.78;;;2.53;;
70102;SDS011;57470;50.034;15.256;2022-10-16T04:04:30;5.00;;;1.33;;
70102;SDS011;57470;50.034;15.256;2022-10-16T04:06:56;6.23;;;2.50;;
70102;SDS011;57470;50.034;15.256;2022-10-16T04:09:21;10.30;;;1.80;;
70102;SDS011;57470;50.034;15.256;2022-10-16T04:11:47;13.80;;;1.80;;
70102;SDS011;57470;50.034;15.256;2022-10-16T04:14:12;8.20;;;1.67;;
70102;SDS011;57470;50.034;15.256;2022-10-16T04:16:37;6.13;;;2.30;;
70102;SDS011;57470;50.034;15.256;2022-10-16T04:19:03;6.77;;;2.80;;
70102;SDS011;57470;50.034;15.256;2022-10-16T04:21:28;6.10;;;2.00;;
70102;SDS011;57470;50.034;15.256;2022-10-16T04:23:54;5.90;;;1.80;;
70102;SDS011;57470;50.034;15.256;2022-10-16T04:26:19;4.10;;;1.10;;
70102;SDS011;57470;50.034;15.256;2022-10-16T04:28:45;5.07;;;1.77;;
70102;SDS011;57470;50.034;15.256;2022-10-16T04:31:10;4.37;;;1.40;;
70102;SDS011;57470;50.034;15.256;2022-10-16T04:33:35;5.97;;;1.27;;
70102;SDS011;57470;50.034;15.256;2022-10-16T04:36:02;5.73;;;1.43;;
70102;SDS011;57470;50.034;15.256;2022-10-16T04:38:28;5.47;;;1.95;;
70102;SDS011;57470;50.034;15.256;2022-10-16T04:40:54;5.93;;;1.33;;
70102;SDS011;57470;50.034;15.256;2022-10-16T04:43:20;5.83;;;1.50;;
70102;SDS011;57470;50.034;15.256;2022-10-16T04:45:46;5.13;;;1.40;;
70102;SDS011;57470;50.034;15.256;2022-10-16T04:48:11;3.63;;;0.60;;
70102;SDS011;57470;50.034;15.256;2022-10-16T04:50:37;4.83;;;1.40;;
70102;SDS011;57470;50.034;15.256;2022-10-16T04:53:02;6.30;;;1.38;;
70102;SDS011;57470;50.034;15.256;2022-10-16T04:55:28;4.93;;;1.57;;
70102;SDS011;57470;50.034;15.256;2022-10-16T04:57:53;5.60;;;1.77;;
70102;SDS011;57470;50.034;15.256;2022-10-16T05:00:19;7.73;;;2.27;;
70102;SDS011;57470;50.034;15.256;2022-10-16T05:02:44;5.07;;;1.67;;
70102;SDS011;57470;50.034;15.256;2022-10-16T05:05:09;4.85;;;1.25;;
70102;SDS011;57470;50.034;15.256;2022-10-16T05:07:35;4.73;;;1.27;;
70102;SDS011;57470;50.034;15.256;2022-10-16T05:10:00;5.53;;;1.27;;
70102;SDS011;57470;50.034;15.256;2022-10-16T05:12:26;4.73;;;1.57;;
70102;SDS011;57470;50.034;15.256;2022-10-16T05:14:51;4.60;;;1.60;;
70102;SDS011;57470;50.034;15.256;2022-10-16T05:17:16;4.30;;;1.23;;
70102;SDS011;57470;50.034;15.256;2022-10-16T05:19:42;5.00;;;1.50;;
70102;SDS011;57470;50.034;15.256;2022-10-16T05:22:07;5.07;;;1.17;;
70102;SDS011;57470;50.034;15.256;2022-10-16T05:24:33;6.77;;;2.17;;
70102;SDS011;57470;50.034;15.256;2022-10-16T05:26:58;4.70;;;1.73;;
70102;SDS011;57470;50.034;15.256;2022-10-16T05:29:24;5.53;;;1.50;;
70102;SDS011;57470;50.034;15.256;2022-10-16T05:31:50;5.50;;;1.50;;
70102;SDS011;57470;50.034;15.256;2022-10-16T05:34:16;4.95;;;1.17;;
70102;SDS011;57470;50.034;15.256;2022-10-16T05:36:42;4.90;;;1.47;;
70102;SDS011;57470;50.034;15.256;2022-10-16T05:39:09;5.00;;;1.27;;
70102;SDS011;57470;50.034;15.256;2022-10-16T05:41:35;5.03;;;0.97;;
70102;SDS011;57470;50.034;15.256;2022-10-16T05:44:03;4.57;;;1.40;;
70102;SDS011;57470;50.034;15.256;2022-10-16T05:46:29;4.63;;;1.15;;
70102;SDS011;57470;50.034;15.256;2022-10-16T05:48:54;3.53;;;1.10;;
70102;SDS011;57470;50.034;15.256;2022-10-16T05:51:19;8.10;;;1.20;;
70102;SDS011;57470;50.034;15.256;2022-10-16T05:53:45;3.50;;;1.10;;
70102;SDS011;57470;50.034;15.256;2022-10-16T05:56:10;4.70;;;1.23;;
70102;SDS011;57470;50.034;15.256;2022-10-16T05:58:37;4.32;;;1.35;;
70102;SDS011;57470;50.034;15.256;2022-10-16T06:01:15;5.20;;;1.23;;
70102;SDS011;57470;50.034;15.256;2022-10-16T06:03:42;4.07;;;1.30;;
70102;SDS011;57470;50.034;15.256;2022-10-16T06:06:09;3.88;;;1.05;;
70102;SDS011;57470;50.034;15.256;2022-10-16T06:08:35;4.95;;;1.90;;
70102;SDS011;57470;50.034;15.256;2022-10-16T06:11:04;5.73;;;1.83;;
70102;SDS011;57470;50.034;15.256;2022-10-16T06:13:32;5.88;;;1.80;;
70102;SDS011;57470;50.034;15.256;2022-10-16T06:15:58;5.17;;;1.90;;
70102;SDS011;57470;50.034;15.256;2022-10-16T06:18:25;4.93;;;1.60;;
70102;SDS011;57470;50.034;15.256;2022-10-16T06:20:51;6.75;;;1.98;;
70102;SDS011;57470;50.034;15.256;2022-10-16T06:23:16;5.30;;;1.67;;
70102;SDS011;57470;50.034;15.256;2022-10-16T06:25:42;5.90;;;1.70;;
70102;SDS011;57470;50.034;15.256;2022-10-16T06:28:07;7.70;;;2.13;;
70102;SDS011;57470;50.034;15.256;2022-10-16T06:30:32;5.43;;;1.60;;
70102;SDS011;57470;50.034;15.256;2022-10-16T06:32:58;5.70;;;1.40;;
70102;SDS011;57470;50.034;15.256;2022-10-16T06:35:23;5.73;;;1.70;;
70102;SDS011;57470;50.034;15.256;2022-10-16T06:37:49;7.03;;;2.63;;
70102;SDS011;57470;50.034;15.256;2022-10-16T06:40:14;5.30;;;1.43;;
70102;SDS011;57470;50.034;15.256;2022-10-16T06:42:40;6.55;;;1.80;;
70102;SDS011;57470;50.034;15.256;2022-10-16T06:45:06;6.53;;;1.58;;
70102;SDS011;57470;50.034;15.256;2022-10-16T06:47:32;4.77;;;1.50;;
70102;SDS011;57470;50.034;15.256;2022-10-16T06:49:57;7.95;;;2.30;;
70102;SDS011;57470;50.034;15.256;2022-10-16T06:52:23;7.47;;;2.00;;
70102;SDS011;57470;50.034;15.256;2022-10-16T06:54:49;6.23;;;2.00;;
70102;SDS011;57470;50.034;15.256;2022-10-16T06:57:14;6.40;;;2.03;;
70102;SDS011;57470;50.034;15.256;2022-10-16T06:59:40;6.33;;;1.93;;
70102;SDS011;57470;50.034;15.256;2022-10-16T07:02:05;6.23;;;1.60;;
70102;SDS011;57470;50.034;15.256;2022-10-16T07:04:32;4.55;;;1.55;;
70102;SDS011;57470;50.034;15.256;2022-10-16T07:06:57;5.80;;;1.90;;
70102;SDS011;57470;50.034;15.256;2022-10-16T07:09:24;6.72;;;2.00;;
70102;SDS011;57470;50.034;15.256;2022-10-16T07:11:50;5.20;;;1.23;;
70102;SDS011;57470;50.034;15.256;2022-10-16T07:14:16;4.13;;;1.20;;
70102;SDS011;57470;50.034;15.256;2022-10-16T07:16:44;6.03;;;1.77;;
70102;SDS011;57470;50.034;15.256;2022-10-16T07:19:10;4.72;;;1.63;;
70102;SDS011;57470;50.034;15.256;2022-10-16T07:21:37;6.15;;;1.88;;
70102;SDS011;57470;50.034;15.256;2022-10-16T07:24:04;4.47;;;1.43;;
70102;SDS011;57470;50.034;15.256;2022-10-16T07:26:32;6.88;;;2.08;;
70102;SDS011;57470;50.034;15.256;2022-10-16T07:29:00;4.97;;;1.50;;
70102;SDS011;57470;50.034;15.256;2022-10-16T07:31:28;7.38;;;2.00;;
70102;SDS011;57470;50.034;15.256;2022-10-16T07:33:54;6.33;;;1.37;;
70102;SDS011;57470;50.034;15.256;2022-10-16T07:36:20;4.83;;;1.40;;
70102;SDS011;57470;50.034;15.256;2022-10-16T07:38:47;4.32;;;1.38;;
70102;SDS011;57470;50.034;15.256;2022-10-16T07:41:16;4.95;;;2.00;;
70102;SDS011;57470;50.034;15.256;2022-10-16T07:43:48;5.15;;;1.58;;
70102;SDS011;57470;50.034;15.256;2022-10-16T07:46:25;6.80;;;1.95;;
70102;SDS011;57470;50.034;15.256;2022-10-16T07:48:51;3.20;;;0.73;;
70102;SDS011;57470;50.034;15.256;2022-10-16T07:51:18;5.75;;;1.30;;
70102;SDS011;57470;50.034;15.256;2022-10-16T07:53:46;5.72;;;2.25;;
70102;SDS011;57470;50.034;15.256;2022-10-16T07:56:13;5.82;;;1.88;;
70102;SDS011;57470;50.034;15.256;2022-10-16T07:58:39;5.60;;;1.60;;
70102;SDS011;57470;50.034;15.256;2022-10-16T08:01:06;4.78;;;1.35;;
70102;SDS011;57470;50.034;15.256;2022-10-16T08:03:34;5.10;;;1.40;;
70102;SDS011;57470;50.034;15.256;2022-10-16T08:06:00;5.10;;;1.33;;
70102;SDS011;57470;50.034;15.256;2022-10-16T08:08:26;4.88;;;1.67;;
70102;SDS011;57470;50.034;15.256;2022-10-16T08:10:52;5.43;;;1.10;;
70102;SDS011;57470;50.034;15.256;2022-10-16T08:13:17;4.47;;;1.13;;
70102;SDS011;57470;50.034;15.256;2022-10-16T08:15:44;4.60;;;1.27;;
70102;SDS011;57470;50.034;15.256;2022-10-16T08:18:12;4.93;;;1.30;;
70102;SDS011;57470;50.034;15.256;2022-10-16T08:20:39;8.35;;;1.80;;
70102;SDS011;57470;50.034;15.256;2022-10-16T08:23:05;4.47;;;0.97;;
70102;SDS011;57470;50.034;15.256;2022-10-16T08:25:36;3.45;;;0.90;;
70102;SDS011;57470;50.034;15.256;2022-10-16T08:28:05;4.28;;;1.40;;
70102;SDS011;57470;50.034;15.256;2022-10-16T08:30:32;4.70;;;1.58;;
70102;SDS011;57470;50.034;15.256;2022-10-16T08:32:58;4.05;;;1.20;;
70102;SDS011;57470;50.034;15.256;2022-10-16T08:35:24;5.43;;;1.40;;
70102;SDS011;57470;50.034;15.256;2022-10-16T08:37:49;4.73;;;1.50;;
70102;SDS011;57470;50.034;15.256;2022-10-16T08:40:19;4.35;;;1.33;;
70102;SDS011;57470;50.034;15.256;2022-10-16T08:42:58;5.33;;;2.03;;
70102;SDS011;57470;50.034;15.256;2022-10-16T08:45:41;4.78;;;1.38;;
70102;SDS011;57470;50.034;15.256;2022-10-16T08:48:19;4.72;;;1.20;;
70102;SDS011;57470;50.034;15.256;2022-10-16T08:50:54;6.10;;;1.27;;
70102;SDS011;57470;50.034;15.256;2022-10-16T08:53:21;4.32;;;1.58;;
70102;SDS011;57470;50.034;15.256;2022-10-16T08:55:53;4.63;;;1.60;;
70102;SDS011;57470;50.034;15.256;2022-10-16T08:58:20;4.68;;;1.80;;
70102;SDS011;57470;50.034;15.256;2022-10-16T09:00:50;4.45;;;1.50;;
70102;SDS011;57470;50.034;15.256;2022-10-16T09:06:01;5.73;;;2.20;;
70102;SDS011;57470;50.034;15.256;2022-10-16T09:12:00;5.38;;;1.70;;
70102;SDS011;57470;50.034;15.256;2022-10-16T09:14:43;4.28;;;0.93;;
70102;SDS011;57470;50.034;15.256;2022-10-16T09:19:51;5.43;;;1.77;;
70102;SDS011;57470;50.034;15.256;2022-10-16T09:22:25;4.00;;;1.33;;
70102;SDS011;57470;50.034;15.256;2022-10-16T09:24:54;4.05;;;1.27;;
70102;SDS011;57470;50.034;15.256;2022-10-16T09:27:24;8.57;;;1.35;;
70102;SDS011;57470;50.034;15.256;2022-10-16T09:29:50;5.57;;;1.30;;
70102;SDS011;57470;50.034;15.256;2022-10-16T09:32:19;3.78;;;1.40;;
70102;SDS011;57470;50.034;15.256;2022-10-16T09:34:48;5.10;;;1.63;;
70102;SDS011;57470;50.034;15.256;2022-10-16T09:37:18;4.88;;;1.52;;
70102;SDS011;57470;50.034;15.256;2022-10-16T09:39:50;4.10;;;1.35;;
70102;SDS011;57470;50.034;15.256;2022-10-16T09:42:23;3.80;;;1.20;;
70102;SDS011;57470;50.034;15.256;2022-10-16T09:44:56;5.72;;;1.80;;
70102;SDS011;57470;50.034;15.256;2022-10-16T09:47:28;4.80;;;1.50;;
70102;SDS011;57470;50.034;15.256;2022-10-16T09:50:00;6.03;;;1.70;;
70102;SDS011;57470;50.034;15.256;2022-10-16T09:52:29;5.35;;;1.02;;
70102;SDS011;57470;50.034;15.256;2022-10-16T09:54:59;4.85;;;1.02;;
70102;SDS011;57470;50.034;15.256;2022-10-16T09:57:27;5.00;;;1.60;;
70102;SDS011;57470;50.034;15.256;2022-10-16T09:59:56;7.35;;;1.10;;
70102;SDS011;57470;50.034;15.256;2022-10-16T10:02:26;4.80;;;1.23;;
70102;SDS011;57470;50.034;15.256;2022-10-16T10:04:55;4.00;;;1.17;;
70102;SDS011;57470;50.034;15.256;2022-10-16T10:07:26;4.38;;;1.30;;
70102;SDS011;57470;50.034;15.256;2022-10-16T10:09:53;5.07;;;1.48;;
70102;SDS011;57470;50.034;15.256;2022-10-16T10:15:13;4.75;;;1.40;;
70102;SDS011;57470;50.034;15.256;2022-10-16T10:17:56;4.30;;;1.20;;
70102;SDS011;57470;50.034;15.256;2022-10-16T10:20:29;5.25;;;1.33;;
70102;SDS011;57470;50.034;15.256;2022-10-16T10:23:22;4.45;;;1.25;;
70102;SDS011;57470;50.034;15.256;2022-10-16T10:25:53;3.95;;;1.40;;
70102;SDS011;57470;50.034;15.256;2022-10-16T10:28:31;6.78;;;1.30;;
70102;SDS011;57470;50.034;15.256;2022-10-16T10:31:14;4.03;;;1.10;;
70102;SDS011;57470;50.034;15.256;2022-10-16T10:33:57;6.85;;;1.13;;
70102;SDS011;57470;50.034;15.256;2022-10-16T10:39:08;5.00;;;1.48;;
70102;SDS011;57470;50.034;15.256;2022-10-16T10:44:25;6.03;;;1.47;;
70102;SDS011;57470;50.034;15.256;2022-10-16T10:49:56;3.95;;;1.10;;
70102;SDS011;57470;50.034;15.256;2022-10-16T11:01:12;9.57;;;2.17;;
70102;SDS011;57470;50.034;15.256;2022-10-16T11:06:18;5.97;;;1.75;;
70102;SDS011;57470;50.034;15.256;2022-10-16T11:08:52;6.88;;;1.90;;
70102;SDS011;57470;50.034;15.256;2022-10-16T11:11:44;4.77;;;1.73;;
70102;SDS011;57470;50.034;15.256;2022-10-16T11:16:58;5.07;;;1.77;;
70102;SDS011;57470;50.034;15.256;2022-10-16T11:22:19;6.10;;;2.13;;
70102;SDS011;57470;50.034;15.256;2022-10-16T11:25:02;10.90;;;3.13;;
70102;SDS011;57470;50.034;15.256;2022-10-16T11:30:22;4.68;;;1.40;;
70102;SDS011;57470;50.034;15.256;2022-10-16T11:35:25;3.90;;;1.30;;
70102;SDS011;57470;50.034;15.256;2022-10-16T11:38:14;3.37;;;0.87;;
70102;SDS011;57470;50.034;15.256;2022-10-16T11:40:48;2.40;;;0.50;;
70102;SDS011;57470;50.034;15.256;2022-10-16T11:43:25;3.00;;;0.80;;
70102;SDS011;57470;50.034;15.256;2022-10-16T11:45:55;2.92;;;0.70;;
70102;SDS011;57470;50.034;15.256;2022-10-16T11:48:28;3.80;;;0.73;;
70102;SDS011;57470;50.034;15.256;2022-10-16T11:51:21;5.57;;;1.03;;
70102;SDS011;57470;50.034;15.256;2022-10-16T11:56:32;2.50;;;0.52;;
70102;SDS011;57470;50.034;15.256;2022-10-16T11:59:13;2.75;;;0.85;;
70102;SDS011;57470;50.034;15.256;2022-10-16T12:05:05;9.10;;;0.70;;
70102;SDS011;57470;50.034;15.256;2022-10-16T12:07:41;2.67;;;0.73;;
70102;SDS011;57470;50.034;15.256;2022-10-16T12:10:27;3.00;;;0.95;;
70102;SDS011;57470;50.034;15.256;2022-10-16T12:12:56;3.42;;;1.00;;
70102;SDS011;57470;50.034;15.256;2022-10-16T12:15:26;2.95;;;0.80;;
70102;SDS011;57470;50.034;15.256;2022-10-16T12:17:53;3.27;;;0.70;;
70102;SDS011;57470;50.034;15.256;2022-10-16T12:23:06;3.70;;;0.85;;
70102;SDS011;57470;50.034;15.256;2022-10-16T12:25:33;4.00;;;1.15;;
70102;SDS011;57470;50.034;15.256;2022-10-16T12:28:00;4.85;;;1.13;;
70102;SDS011;57470;50.034;15.256;2022-10-16T12:30:29;4.80;;;0.80;;
70102;SDS011;57470;50.034;15.256;2022-10-16T12:32:58;4.07;;;0.60;;
70102;SDS011;57470;50.034;15.256;2022-10-16T12:35:32;2.88;;;0.73;;
70102;SDS011;57470;50.034;15.256;2022-10-16T12:38:18;4.60;;;0.60;;
70102;SDS011;57470;50.034;15.256;2022-10-16T12:40:59;4.55;;;0.85;;
70102;SDS011;57470;50.034;15.256;2022-10-16T12:43:27;2.90;;;0.60;;
70102;SDS011;57470;50.034;15.256;2022-10-16T12:46:04;4.38;;;0.93;;
70102;SDS011;57470;50.034;15.256;2022-10-16T12:48:45;4.00;;;1.23;;
70102;SDS011;57470;50.034;15.256;2022-10-16T12:54:13;4.97;;;1.88;;
70102;SDS011;57470;50.034;15.256;2022-10-16T12:56:50;3.93;;;1.07;;
70102;SDS011;57470;50.034;15.256;2022-10-16T12:59:54;4.60;;;1.63;;
70102;SDS011;57470;50.034;15.256;2022-10-16T13:07:53;4.68;;;1.65;;
70102;SDS011;57470;50.034;15.256;2022-10-16T13:16:19;2.72;;;0.60;;
70102;SDS011;57470;50.034;15.256;2022-10-16T13:21:43;4.10;;;1.30;;
70102;SDS011;57470;50.034;15.256;2022-10-16T13:29:32;9.50;;;3.17;;
70102;SDS011;57470;50.034;15.256;2022-10-16T13:31:59;4.20;;;1.30;;
70102;SDS011;57470;50.034;15.256;2022-10-16T13:34:26;4.55;;;1.67;;
70102;SDS011;57470;50.034;15.256;2022-10-16T13:36:54;5.03;;;1.80;;
70102;SDS011;57470;50.034;15.256;2022-10-16T13:39:23;5.20;;;1.52;;
70102;SDS011;57470;50.034;15.256;2022-10-16T13:44:52;4.03;;;0.90;;
70102;SDS011;57470;50.034;15.256;2022-10-16T13:47:23;4.20;;;0.63;;
70102;SDS011;57470;50.034;15.256;2022-10-16T13:50:00;4.13;;;0.98;;
70102;SDS011;57470;50.034;15.256;2022-10-16T13:52:28;4.07;;;0.73;;
70102;SDS011;57470;50.034;15.256;2022-10-16T13:54:53;3.70;;;0.90;;
70102;SDS011;57470;50.034;15.256;2022-10-16T13:57:22;3.33;;;0.77;;
70102;SDS011;57470;50.034;15.256;2022-10-16T13:59:49;3.95;;;1.15;;
70102;SDS011;57470;50.034;15.256;2022-10-16T14:02:19;4.40;;;0.95;;
70102;SDS011;57470;50.034;15.256;2022-10-16T14:04:47;3.93;;;0.93;;
70102;SDS011;57470;50.034;15.256;2022-10-16T14:07:14;6.55;;;1.50;;
70102;SDS011;57470;50.034;15.256;2022-10-16T14:09:54;3.72;;;1.08;;
70102;SDS011;57470;50.034;15.256;2022-10-16T14:12:22;4.22;;;1.33;;
70102;SDS011;57470;50.034;15.256;2022-10-16T14:14:49;3.90;;;0.98;;
70102;SDS011;57470;50.034;15.256;2022-10-16T14:17:19;3.90;;;0.97;;
70102;SDS011;57470;50.034;15.256;2022-10-16T14:19:58;4.70;;;0.90;;
70102;SDS011;57470;50.034;15.256;2022-10-16T14:27:44;3.13;;;0.70;;
70102;SDS011;57470;50.034;15.256;2022-10-16T14:30:20;2.67;;;0.70;;
70102;SDS011;57470;50.034;15.256;2022-10-16T14:33:00;27.95;;;14.27;;
70102;SDS011;57470;50.034;15.256;2022-10-16T14:38:00;3.75;;;1.10;;
70102;SDS011;57470;50.034;15.256;2022-10-16T14:40:31;3.80;;;1.00;;
70102;SDS011;57470;50.034;15.256;2022-10-16T14:42:58;3.00;;;0.75;;
70102;SDS011;57470;50.034;15.256;2022-10-16T14:45:27;3.05;;;0.73;;
70102;SDS011;57470;50.034;15.256;2022-10-16T14:47:58;3.25;;;0.70;;
70102;SDS011;57470;50.034;15.256;2022-10-16T14:50:27;5.70;;;1.13;;
70102;SDS011;57470;50.034;15.256;2022-10-16T14:52:53;5.40;;;2.20;;
70102;SDS011;57470;50.034;15.256;2022-10-16T14:55:19;5.78;;;2.17;;
70102;SDS011;57470;50.034;15.256;2022-10-16T14:57:45;7.53;;;3.08;;
70102;SDS011;57470;50.034;15.256;2022-10-16T15:00:16;7.88;;;3.13;;
70102;SDS011;57470;50.034;15.256;2022-10-16T15:02:45;9.57;;;3.22;;
70102;SDS011;57470;50.034;15.256;2022-10-16T15:05:24;6.30;;;2.60;;
70102;SDS011;57470;50.034;15.256;2022-10-16T15:07:51;8.10;;;3.90;;
70102;SDS011;57470;50.034;15.256;2022-10-16T15:10:18;14.88;;;4.00;;
70102;SDS011;57470;50.034;15.256;2022-10-16T15:12:45;9.20;;;4.20;;
70102;SDS011;57470;50.034;15.256;2022-10-16T15:15:17;8.50;;;3.53;;
70102;SDS011;57470;50.034;15.256;2022-10-16T15:17:54;8.80;;;4.07;;
70102;SDS011;57470;50.034;15.256;2022-10-16T15:20:21;11.27;;;4.18;;
70102;SDS011;57470;50.034;15.256;2022-10-16T15:22:48;9.93;;;4.43;;
70102;SDS011;57470;50.034;15.256;2022-10-16T15:25:35;11.63;;;4.13;;
70102;SDS011;57470;50.034;15.256;2022-10-16T15:28:04;9.68;;;4.40;;
70102;SDS011;57470;50.034;15.256;2022-10-16T15:30:31;15.18;;;5.85;;
70102;SDS011;57470;50.034;15.256;2022-10-16T15:32:57;12.73;;;4.87;;
70102;SDS011;57470;50.034;15.256;2022-10-16T15:35:23;13.25;;;4.85;;
70102;SDS011;57470;50.034;15.256;2022-10-16T15:37:48;14.67;;;5.90;;
70102;SDS011;57470;50.034;15.256;2022-10-16T15:40:15;10.25;;;3.55;;
70102;SDS011;57470;50.034;15.256;2022-10-16T15:42:41;13.33;;;5.50;;
70102;SDS011;57470;50.034;15.256;2022-10-16T15:45:07;15.13;;;5.10;;
70102;SDS011;57470;50.034;15.256;2022-10-16T15:47:34;17.73;;;7.33;;
70102;SDS011;57470;50.034;15.256;2022-10-16T15:50:00;13.40;;;6.32;;
70102;SDS011;57470;50.034;15.256;2022-10-16T15:52:27;18.07;;;6.80;;
70102;SDS011;57470;50.034;15.256;2022-10-16T15:54:53;19.13;;;8.05;;
70102;SDS011;57470;50.034;15.256;2022-10-16T15:57:19;16.95;;;6.65;;
70102;SDS011;57470;50.034;15.256;2022-10-16T15:59:45;20.33;;;8.20;;
70102;SDS011;57470;50.034;15.256;2022-10-16T16:02:10;21.33;;;8.30;;
70102;SDS011;57470;50.034;15.256;2022-10-16T16:04:35;15.18;;;7.30;;
70102;SDS011;57470;50.034;15.256;2022-10-16T16:07:01;16.67;;;6.93;;
70102;SDS011;57470;50.034;15.256;2022-10-16T16:09:28;18.60;;;7.83;;
70102;SDS011;57470;50.034;15.256;2022-10-16T16:11:55;21.35;;;8.60;;
70102;SDS011;57470;50.034;15.256;2022-10-16T16:14:20;11.63;;;5.50;;
70102;SDS011;57470;50.034;15.256;2022-10-16T16:16:46;21.67;;;8.20;;
70102;SDS011;57470;50.034;15.256;2022-10-16T16:19:11;17.83;;;7.72;;
70102;SDS011;57470;50.034;15.256;2022-10-16T16:21:37;18.23;;;7.13;;